Time;durP1;ratioP1;P1;durP2;ratioP2;P2;SDS_P1;SDS_P2;PMS_P1;PMS_P2;Temp;Humidity;BMP_temperature;BMP_pressure;BME280_temperature;BME280_humidity;BME280_pressure;Samples;Min_cycle;Max_cycle;Signal;HPM_P1;HPM_P2
2022/07/12 00:00:54;;;;;;;5.65;3.45;;;;;;;22.26;100.00;102255.19;5071962;28;20059;-50
2022/07/12 00:03:20;;;;;;;5.95;3.60;;;;;;;22.24;100.00;102251.88;5068000;28;20095;-48
2022/07/12 00:05:45;;;;;;;5.57;3.93;;;;;;;22.18;100.00;102251.78;5068837;28;20045;-50
2022/07/12 00:08:11;;;;;;;5.20;3.65;;;;;;;22.18;100.00;102256.38;5067144;28;20052;-48
2022/07/12 00:10:36;;;;;;;6.60;3.40;;;;;;;22.15;100.00;102257.72;5067588;28;20044;-49
2022/07/12 00:13:04;;;;;;;5.18;3.47;;;;;;;22.16;100.00;102262.09;5067453;28;20048;-50
2022/07/12 00:15:30;;;;;;;7.23;4.20;;;;;;;22.02;100.00;102255.22;5072655;28;20033;-50
2022/07/12 00:17:55;;;;;;;5.07;3.55;;;;;;;22.03;100.00;102256.88;5074748;28;20067;-51
2022/07/12 00:20:21;;;;;;;5.20;3.78;;;;;;;21.98;100.00;102256.78;5072415;28;20037;-49
2022/07/12 00:22:46;;;;;;;9.43;3.42;;;;;;;22.09;100.00;102264.09;5075408;28;20028;-51
2022/07/12 00:25:12;;;;;;;6.72;3.85;;;;;;;22.02;100.00;102261.50;5077019;28;20056;-50
2022/07/12 00:27:38;;;;;;;5.00;3.67;;;;;;;21.88;100.00;102268.28;5074196;28;20098;-53
2022/07/12 00:30:05;;;;;;;5.27;3.57;;;;;;;21.88;100.00;102258.19;5076144;28;20032;-51
2022/07/12 00:32:30;;;;;;;6.90;4.27;;;;;;;21.79;100.00;102259.63;5075699;28;20036;-46
2022/07/12 00:34:56;;;;;;;9.75;4.45;;;;;;;21.73;100.00;102261.38;5075713;28;20067;-48
2022/07/12 00:37:21;;;;;;;6.35;3.80;;;;;;;21.73;100.00;102255.94;5077963;28;20044;-47
2022/07/12 00:39:47;;;;;;;6.43;4.07;;;;;;;21.73;100.00;102252.41;5070813;28;20029;-50
2022/07/12 00:42:12;;;;;;;6.40;4.30;;;;;;;21.66;100.00;102257.13;5069111;28;20057;-48
2022/07/12 00:44:38;;;;;;;7.40;4.10;;;;;;;21.65;100.00;102260.91;5071304;28;20037;-53
2022/07/12 00:47:05;;;;;;;6.30;4.28;;;;;;;21.58;100.00;102250.13;5071863;28;20087;-50
2022/07/12 00:49:30;;;;;;;9.33;4.23;;;;;;;21.61;100.00;102239.56;5073500;28;20045;-49
2022/07/12 00:51:56;;;;;;;;;;;;;;;21.58;100.00;102248.22;5073330;28;20029;-47
2022/07/12 00:54:22;;;;;;;7.70;4.37;;;;;;;21.55;100.00;102259.56;5071302;28;19920;-49
2022/07/12 00:56:48;;;;;;;5.13;4.20;;;;;;;21.54;100.00;102252.47;5074814;28;20030;-51
2022/07/12 00:59:14;;;;;;;7.32;4.47;;;;;;;21.41;100.00;102253.53;5072546;28;20037;-50
2022/07/12 01:01:41;;;;;;;7.88;4.40;;;;;;;21.40;100.00;102261.91;5073120;28;20068;-47
2022/07/12 01:04:07;;;;;;;6.83;5.60;;;;;;;21.40;100.00;102260.03;5073338;28;20039;-52
2022/07/12 01:06:33;;;;;;;;;;;;;;;21.34;100.00;102261.78;5077217;28;20045;-50
2022/07/12 01:08:59;;;;;;;9.07;5.37;;;;;;;21.40;100.00;102264.63;5076110;28;19980;-48
2022/07/12 01:11:25;;;;;;;9.93;5.20;;;;;;;21.39;100.00;102269.25;5073649;28;20258;-51
2022/07/12 01:13:55;;;;;;;7.00;4.80;;;;;;;21.37;100.00;102271.38;5069554;28;20080;-49
2022/07/12 01:16:21;;;;;;;6.67;5.27;;;;;;;21.38;100.00;102272.22;5067457;28;20037;-48
2022/07/12 01:18:46;;;;;;;6.85;5.43;;;;;;;21.28;100.00;102283.66;5074491;28;20042;-49
2022/07/12 01:21:22;;;;;;;8.52;5.45;;;;;;;21.26;100.00;102280.34;5077764;28;20068;-49
2022/07/12 01:23:49;;;;;;;8.73;5.57;;;;;;;21.23;100.00;102286.25;5072610;28;20088;-49
2022/07/12 01:26:16;;;;;;;8.20;5.63;;;;;;;21.22;100.00;102282.72;5073783;28;20033;-50
2022/07/12 01:28:41;;;;;;;6.47;4.93;;;;;;;21.14;100.00;102291.19;5079392;28;20057;-47
2022/07/12 01:31:07;;;;;;;7.30;4.75;;;;;;;21.27;100.00;102293.72;5078180;28;20024;-48
2022/07/12 01:33:33;;;;;;;7.50;4.78;;;;;;;21.20;100.00;102287.53;5077080;28;20109;-52
2022/07/12 01:35:59;;;;;;;7.97;4.77;;;;;;;21.14;100.00;102289.31;5075265;28;20028;-51
2022/07/12 01:38:25;;;;;;;7.78;5.07;;;;;;;21.05;100.00;102288.81;5073650;28;20277;-47
2022/07/12 01:40:50;;;;;;;6.28;4.95;;;;;;;21.07;100.00;102294.00;5074639;28;20040;-50
2022/07/12 01:43:16;;;;;;;8.60;5.47;;;;;;;21.13;100.00;102287.66;5074037;28;20044;-48
2022/07/12 01:45:42;;;;;;;6.13;5.05;;;;;;;21.14;100.00;102293.91;5070844;28;20199;-52
2022/07/12 01:48:08;;;;;;;6.22;4.68;;;;;;;21.14;100.00;102294.75;5071802;28;20365;-50
2022/07/12 01:50:33;;;;;;;7.60;5.32;;;;;;;20.98;100.00;102296.22;5073664;28;20067;-51
2022/07/12 01:53:00;;;;;;;8.98;5.65;;;;;;;20.99;100.00;102292.47;5078841;28;20043;-48
2022/07/12 01:55:26;;;;;;;7.05;5.75;;;;;;;21.04;100.00;102294.47;5074783;28;20029;-47
2022/07/12 01:57:53;;;;;;;7.43;5.22;;;;;;;21.02;100.00;102292.00;5077117;28;20062;-48
2022/07/12 02:00:19;;;;;;;9.27;6.38;;;;;;;21.00;100.00;102283.25;5077938;28;20041;-47
2022/07/12 02:02:45;;;;;;;9.23;6.80;;;;;;;21.05;100.00;102280.66;5073068;28;20029;-50
2022/07/12 02:05:11;;;;;;;8.45;6.32;;;;;;;21.01;100.00;102284.91;5069863;28;20296;-49
2022/07/12 02:07:39;;;;;;;12.23;7.18;;;;;;;20.94;100.00;102275.16;5079405;28;20036;-51
2022/07/12 02:10:06;;;;;;;8.37;7.07;;;;;;;21.02;100.00;102269.38;5078810;28;20053;-50
2022/07/12 02:12:31;;;;;;;10.57;8.27;;;;;;;21.08;100.00;102273.09;5068981;28;20056;-50
2022/07/12 02:14:57;;;;;;;10.80;8.70;;;;;;;21.08;100.00;102275.81;5072424;28;20263;-48
2022/07/12 02:17:22;;;;;;;11.05;7.43;;;;;;;21.10;100.00;102270.97;5069046;28;20061;-48
2022/07/12 02:19:48;;;;;;;9.35;7.25;;;;;;;21.00;100.00;102266.91;5070245;28;20043;-51
2022/07/12 02:22:13;;;;;;;8.57;7.47;;;;;;;20.93;100.00;102260.72;5080669;28;20068;-52
2022/07/12 02:24:39;;;;;;;8.70;6.90;;;;;;;20.90;100.00;102261.19;5074182;28;20049;-46
2022/07/12 02:27:05;;;;;;;9.90;7.53;;;;;;;20.91;100.00;102258.25;5070518;28;20051;-51
2022/07/12 02:29:31;;;;;;;11.02;6.97;;;;;;;20.89;100.00;102262.25;5072409;28;20028;-51
2022/07/12 02:31:56;;;;;;;8.27;6.68;;;;;;;20.84;100.00;102257.50;5072801;28;20052;-46
2022/07/12 02:34:21;;;;;;;8.40;6.80;;;;;;;20.78;100.00;102264.69;5076967;28;20040;-48
2022/07/12 02:36:47;;;;;;;10.02;7.80;;;;;;;20.77;100.00;102271.16;5076593;28;20040;-50
2022/07/12 02:39:13;;;;;;;12.88;7.82;;;;;;;20.74;100.00;102268.88;5078759;28;20060;-47
2022/07/12 02:41:38;;;;;;;9.73;7.27;;;;;;;20.64;100.00;102271.34;5073417;28;20052;-49
2022/07/12 02:44:04;;;;;;;11.40;7.53;;;;;;;20.55;100.00;102273.53;5079268;28;20043;-49
2022/07/12 02:46:30;;;;;;;10.70;7.35;;;;;;;20.56;100.00;102277.91;5074346;28;20032;-49
2022/07/12 02:48:55;;;;;;;9.17;7.70;;;;;;;20.57;100.00;102274.13;5074541;28;20080;-50
2022/07/12 02:51:22;;;;;;;;;;;;;;;20.55;100.00;102265.38;5074156;28;20350;-49
2022/07/12 02:53:47;;;;;;;8.37;6.93;;;;;;;20.57;100.00;102271.41;5068977;28;19912;-52
2022/07/12 02:56:13;;;;;;;8.87;7.07;;;;;;;20.64;100.00;102274.06;5075814;28;20029;-49
2022/07/12 02:58:39;;;;;;;10.93;7.43;;;;;;;20.62;100.00;102278.88;5073727;28;20060;-51
2022/07/12 03:01:04;;;;;;;11.73;7.70;;;;;;;20.59;100.00;102276.63;5073356;28;20031;-49
2022/07/12 03:03:30;;;;;;;10.38;7.30;;;;;;;20.61;100.00;102279.94;5075829;28;20064;-45
2022/07/12 03:05:56;;;;;;;13.70;7.07;;;;;;;20.64;100.00;102284.91;5075152;28;20064;-47
2022/07/12 03:08:22;;;;;;;8.70;6.70;;;;;;;20.59;100.00;102282.06;5075221;28;20036;-48
2022/07/12 03:10:47;;;;;;;7.43;6.63;;;;;;;20.44;100.00;102280.56;5073465;28;20104;-52
2022/07/12 03:13:13;;;;;;;14.88;7.63;;;;;;;20.39;100.00;102277.69;5071790;28;20079;-51
2022/07/12 03:15:38;;;;;;;11.60;6.77;;;;;;;20.40;100.00;102281.22;5073803;28;20036;-49
2022/07/12 03:18:04;;;;;;;12.25;7.85;;;;;;;20.35;100.00;102281.91;5067991;28;20481;-52
2022/07/12 03:20:30;;;;;;;11.25;7.45;;;;;;;20.37;100.00;102274.38;5074625;28;20052;-47
2022/07/12 03:22:56;;;;;;;9.52;7.15;;;;;;;20.38;100.00;102272.47;5071416;28;20119;-50
2022/07/12 03:25:22;;;;;;;15.07;7.72;;;;;;;20.32;100.00;102260.66;5072647;28;20039;-49
2022/07/12 03:27:48;;;;;;;12.17;8.13;;;;;;;20.36;100.00;102267.28;5070036;28;20145;-50
2022/07/12 03:30:15;;;;;;;14.20;8.37;;;;;;;20.44;100.00;102264.25;5071416;28;20274;-47
2022/07/12 03:32:40;;;;;;;14.57;9.18;;;;;;;20.41;100.00;102262.00;5069997;28;20287;-51
2022/07/12 03:35:07;;;;;;;10.30;7.88;;;;;;;20.39;100.00;102266.81;5072498;28;20025;-50
2022/07/12 03:37:47;;;;;;;10.30;7.72;;;;;;;20.43;100.00;102257.16;5069543;28;20036;-49
2022/07/12 03:40:15;;;;;;;14.27;8.93;;;;;;;20.39;100.00;102261.38;5073731;28;20079;-55
2022/07/12 03:42:41;;;;;;;13.50;9.17;;;;;;;20.40;100.00;102264.91;5070934;28;20479;-52
2022/07/12 03:45:07;;;;;;;14.20;8.63;;;;;;;20.39;100.00;102258.66;5077798;28;20269;-50
2022/07/12 03:47:34;;;;;;;13.73;8.93;;;;;;;20.35;100.00;102260.19;5066718;28;20280;-50
2022/07/12 03:50:05;;;;;;;11.73;8.37;;;;;;;20.30;100.00;102251.91;5069995;28;20085;-52
2022/07/12 03:52:32;;;;;;;10.40;8.50;;;;;;;20.24;100.00;102259.06;5068157;28;20364;-50
2022/07/12 03:54:58;;;;;;;11.83;9.03;;;;;;;20.28;100.00;102262.13;5070149;28;20333;-50
2022/07/12 03:57:24;;;;;;;11.63;9.52;;;;;;;20.24;100.00;102260.94;5073368;28;20266;-53
2022/07/12 03:59:49;;;;;;;12.55;8.68;;;;;;;20.22;100.00;102273.91;5066853;28;20551;-47
2022/07/12 04:02:15;;;;;;;11.23;8.77;;;;;;;20.33;100.00;102273.19;5071390;28;20041;-50
2022/07/12 04:04:41;;;;;;;14.45;9.40;;;;;;;20.39;100.00;102272.25;5073366;28;20047;-50
2022/07/12 04:07:07;;;;;;;12.95;9.48;;;;;;;20.38;100.00;102275.19;5087339;28;20064;-47
2022/07/12 04:09:33;;;;;;;13.05;9.05;;;;;;;20.39;100.00;102283.13;5079682;28;20036;-48
2022/07/12 04:11:58;;;;;;;14.43;9.45;;;;;;;20.34;100.00;102280.25;5074653;28;20032;-50
2022/07/12 04:14:24;;;;;;;12.77;10.23;;;;;;;20.37;100.00;102279.81;5080686;28;20040;-50
2022/07/12 04:16:50;;;;;;;33.10;18.73;;;;;;;20.48;100.00;102292.63;5086012;28;20035;-50
2022/07/12 04:19:15;;;;;;;39.42;21.02;;;;;;;20.53;100.00;102291.94;5070478;28;20068;-48
2022/07/12 04:21:41;;;;;;;32.10;19.08;;;;;;;20.55;100.00;102292.56;5079171;28;20025;-52
2022/07/12 04:24:06;;;;;;;14.57;11.00;;;;;;;20.61;100.00;102301.69;5076933;28;20040;-46
2022/07/12 04:26:32;;;;;;;13.70;10.48;;;;;;;20.57;100.00;102311.34;5070517;28;20367;-49
2022/07/12 04:28:57;;;;;;;16.80;11.68;;;;;;;20.57;100.00;102305.91;5070380;28;20033;-50
2022/07/12 04:31:23;;;;;;;23.00;13.67;;;;;;;20.65;100.00;102302.88;5077097;28;20037;-51
2022/07/12 04:33:49;;;;;;;;;;;;;;;20.81;100.00;102298.75;5078846;28;20044;-52
2022/07/12 04:36:14;;;;;;;18.70;12.83;;;;;;;20.90;100.00;102299.25;5080247;28;19951;-51
2022/07/12 04:38:40;;;;;;;31.83;19.40;;;;;;;20.88;100.00;102293.22;5073296;28;20088;-47
2022/07/12 04:41:06;;;;;;;13.50;10.77;;;;;;;20.83;100.00;102287.66;5081874;28;20091;-50
2022/07/12 04:43:31;;;;;;;20.50;14.02;;;;;;;21.04;100.00;102289.03;5077631;28;20066;-48
2022/07/12 04:46:05;;;;;;;14.07;11.45;;;;;;;21.00;100.00;102291.41;5075732;28;20087;-49
2022/07/12 04:48:31;;;;;;;17.07;11.20;;;;;;;21.00;100.00;102290.56;5080941;28;20041;-52
2022/07/12 04:50:56;;;;;;;14.05;11.80;;;;;;;20.80;100.00;102293.56;5074329;28;20269;-50
2022/07/12 04:53:22;;;;;;;19.55;14.07;;;;;;;21.05;100.00;102293.41;5070700;28;20159;-48
2022/07/12 04:55:47;;;;;;;17.48;13.13;;;;;;;21.19;100.00;102297.59;5068199;28;20049;-51
2022/07/12 04:58:12;;;;;;;16.77;12.87;;;;;;;21.13;100.00;102290.38;5072714;28;20056;-51
2022/07/12 05:00:38;;;;;;;15.53;13.03;;;;;;;21.11;100.00;102291.66;5073244;28;20101;-47
2022/07/12 05:03:04;;;;;;;17.40;13.85;;;;;;;21.13;100.00;102292.25;5072424;28;20262;-50
2022/07/12 05:05:29;;;;;;;18.42;12.48;;;;;;;21.00;100.00;102294.13;5070099;28;20037;-50
2022/07/12 05:07:55;;;;;;;15.68;12.90;;;;;;;21.12;100.00;102301.47;5078086;28;20067;-49
2022/07/12 05:10:20;;;;;;;18.83;12.77;;;;;;;20.98;100.00;102295.38;5076055;28;20039;-50
2022/07/12 05:12:46;;;;;;;20.50;13.37;;;;;;;20.94;100.00;102305.06;5073004;28;20025;-47
2022/07/12 05:15:11;;;;;;;13.75;11.90;;;;;;;20.88;100.00;102306.81;5073866;28;20290;-51
2022/07/12 05:17:37;;;;;;;16.50;12.25;;;;;;;21.05;100.00;102307.84;5074656;28;20071;-49
2022/07/12 05:20:03;;;;;;;15.98;12.45;;;;;;;21.11;100.00;102305.25;5069059;28;20105;-48
2022/07/12 05:22:29;;;;;;;13.40;11.70;;;;;;;20.98;100.00;102312.53;5069382;28;20052;-52
2022/07/12 05:24:54;;;;;;;16.45;11.88;;;;;;;21.06;100.00;102319.53;5075316;28;20088;-52
2022/07/12 05:27:19;;;;;;;16.17;12.40;;;;;;;20.98;100.00;102323.41;5074602;28;20037;-51
2022/07/12 05:29:45;;;;;;;13.70;11.93;;;;;;;21.19;100.00;102332.13;5074097;28;20257;-48
2022/07/12 05:32:11;;;;;;;16.90;11.88;;;;;;;21.15;100.00;102333.66;5073221;28;20083;-49
2022/07/12 05:34:38;;;;;;;15.52;12.32;;;;;;;21.18;100.00;102335.91;5072163;28;20028;-50
2022/07/12 05:37:04;;;;;;;;;;;;;;;21.10;100.00;102347.13;5071687;28;20021;-52
2022/07/12 05:39:29;;;;;;;15.37;12.10;;;;;;;21.14;100.00;102351.03;5070073;28;19924;-51
2022/07/12 05:41:55;;;;;;;15.13;12.07;;;;;;;21.37;100.00;102358.47;5072411;28;20048;-49
2022/07/12 05:44:20;;;;;;;19.85;14.60;;;;;;;21.45;100.00;102357.28;5080049;28;20076;-51
2022/07/12 05:46:46;;;;;;;15.85;11.50;;;;;;;21.51;100.00;102355.53;5074015;28;20064;-52
2022/07/12 05:49:11;;;;;;;13.75;11.27;;;;;;;21.51;100.00;102361.81;5076685;28;20065;-53
2022/07/12 05:54:21;;;;;;;15.37;12.47;;;;;;;21.59;100.00;102358.75;5074959;28;20036;-50
2022/07/12 05:56:46;;;;;;;18.05;12.13;;;;;;;21.60;100.00;102363.13;5078698;28;20064;-49
2022/07/12 05:59:12;;;;;;;19.13;11.73;;;;;;;21.75;100.00;102367.34;5073350;28;20051;-49
2022/07/12 06:01:37;;;;;;;17.50;12.73;;;;;;;22.28;100.00;102362.88;5067580;28;20055;-54
2022/07/12 06:04:03;;;;;;;17.13;12.88;;;;;;;22.59;100.00;102352.69;5068609;28;20064;-54
2022/07/12 06:06:28;;;;;;;14.15;11.93;;;;;;;21.91;100.00;102355.78;5068437;28;20044;-52
2022/07/12 06:08:54;;;;;;;16.70;12.10;;;;;;;22.33;100.00;102353.97;5076133;28;20033;-53
2022/07/12 06:11:20;;;;;;;14.57;12.02;;;;;;;22.92;100.00;102363.97;5069763;28;20033;-49
2022/07/12 06:13:45;;;;;;;15.85;12.52;;;;;;;22.85;100.00;102357.84;5071091;28;20047;-51
2022/07/12 06:16:11;;;;;;;16.92;13.38;;;;;;;22.77;100.00;102354.41;5075278;28;20033;-51
2022/07/12 06:18:38;;;;;;;15.23;12.80;;;;;;;23.09;100.00;102355.03;5074873;28;20032;-51
2022/07/12 06:21:03;;;;;;;;;;;;;;;22.27;100.00;102354.94;5071865;28;20025;-48
2022/07/12 06:23:29;;;;;;;18.53;12.30;;;;;;;22.27;100.00;102352.22;5078183;28;19935;-50
2022/07/12 06:25:55;;;;;;;;;;;;;;;22.43;100.00;102347.94;5077229;28;20099;-48
2022/07/12 06:28:21;;;;;;;16.73;12.87;;;;;;;22.29;100.00;102355.53;5071991;28;19939;-49
2022/07/12 06:30:47;;;;;;;;;;;;;;;22.26;100.00;102354.13;5067745;28;20081;-47
2022/07/12 06:33:12;;;;;;;16.33;13.60;;;;;;;22.51;100.00;102357.66;5067623;28;20003;-49
2022/07/12 06:35:38;;;;;;;16.17;12.37;;;;;;;22.04;100.00;102356.59;5068787;28;20807;-51
2022/07/12 06:38:04;;;;;;;17.33;12.55;;;;;;;22.01;100.00;102354.34;5072674;28;20269;-51
2022/07/12 06:40:30;;;;;;;17.75;12.50;;;;;;;22.13;100.00;102352.44;5077300;28;20037;-53
2022/07/12 06:42:56;;;;;;;;;;;;;;;22.01;100.00;102348.91;5080101;28;20045;-52
2022/07/12 06:45:22;;;;;;;13.47;10.70;;;;;;;22.09;100.00;102348.53;5072737;28;19931;-52
2022/07/12 06:47:47;;;;;;;16.00;12.30;;;;;;;22.31;100.00;102347.94;5071049;28;20036;-50
2022/07/12 06:50:13;;;;;;;18.02;13.45;;;;;;;22.86;100.00;102351.31;5071754;28;20154;-51
2022/07/12 06:52:39;;;;;;;16.17;11.57;;;;;;;22.99;100.00;102356.47;5076160;28;20048;-52
2022/07/12 06:55:05;;;;;;;15.82;10.85;;;;;;;22.47;100.00;102352.69;5071922;28;20096;-50
2022/07/12 06:57:33;;;;;;;17.55;10.98;;;;;;;22.65;100.00;102353.63;5064115;28;20029;-49
2022/07/12 06:59:59;;;;;;;13.23;10.33;;;;;;;22.89;100.00;102350.84;5071739;28;20066;-49
2022/07/12 07:02:25;;;;;;;13.68;10.07;;;;;;;23.32;100.00;102360.41;5069016;28;20052;-53
2022/07/12 07:04:50;;;;;;;17.30;11.05;;;;;;;23.55;100.00;102364.09;5069470;28;20041;-54
2022/07/12 07:07:16;;;;;;;12.88;10.45;;;;;;;23.57;100.00;102364.69;5072275;28;20041;-51
2022/07/12 07:09:41;;;;;;;13.88;11.38;;;;;;;23.66;100.00;102370.56;5075694;28;20059;-50
2022/07/12 07:12:07;;;;;;;15.70;10.55;;;;;;;23.67;100.00;102372.22;5079955;28;20078;-52
2022/07/12 07:14:33;;;;;;;13.35;10.77;;;;;;;23.91;100.00;102361.94;5068427;28;20052;-52
2022/07/12 07:16:59;;;;;;;14.82;10.95;;;;;;;24.08;100.00;102366.59;5068709;28;20032;-50
2022/07/12 07:19:26;;;;;;;17.02;10.80;;;;;;;23.77;100.00;102366.91;5077685;28;20032;-52
2022/07/12 07:21:54;;;;;;;13.23;10.37;;;;;;;24.07;100.00;102364.94;5075427;28;20041;-53
2022/07/12 07:24:20;;;;;;;12.30;9.67;;;;;;;24.18;100.00;102369.47;5070038;28;20117;-48
2022/07/12 07:26:46;;;;;;;13.25;10.02;;;;;;;24.00;100.00;102364.28;5070891;28;20040;-54
2022/07/12 07:31:55;;;;;;;12.10;9.23;;;;;;;24.40;100.00;102368.69;5067107;28;20040;-48
2022/07/12 07:34:22;;;;;;;12.95;9.93;;;;;;;24.30;100.00;102361.16;5072537;28;20097;-50
2022/07/12 07:36:47;;;;;;;14.10;9.70;;;;;;;24.35;100.00;102363.16;5068449;28;20049;-49
2022/07/12 07:39:13;;;;;;;;;;;;;;;24.62;100.00;102367.88;5075699;28;20083;-50
2022/07/12 07:41:39;;;;;;;13.93;9.30;;;;;;;24.67;100.00;102370.69;5066883;28;19916;-47
2022/07/12 07:44:05;;;;;;;14.88;10.93;;;;;;;24.91;100.00;102367.72;5074065;28;20093;-50
2022/07/12 07:46:30;;;;;;;11.70;9.95;;;;;;;24.87;100.00;102364.69;5074187;28;20044;-46
2022/07/12 07:48:56;;;;;;;22.80;10.27;;;;;;;25.04;100.00;102367.31;5077597;28;20045;-49
2022/07/12 07:51:21;;;;;;;11.50;9.20;;;;;;;24.95;100.00;102363.41;5071278;28;20055;-47
2022/07/12 07:53:47;;;;;;;14.73;9.05;;;;;;;24.82;100.00;102369.25;5071848;28;20045;-48
2022/07/12 07:56:12;;;;;;;14.25;9.63;;;;;;;25.15;100.00;102367.44;5072023;28;20040;-53
2022/07/12 07:58:38;;;;;;;13.82;9.75;;;;;;;25.24;100.00;102371.38;5071006;28;20060;-48
2022/07/12 08:01:04;;;;;;;;;;;;;;;25.48;100.00;102371.09;5072543;28;20054;-52
2022/07/12 08:03:30;;;;;;;15.27;9.23;;;;;;;25.64;100.00;102369.31;5074205;28;19912;-52
2022/07/12 08:05:58;;;;;;;10.77;8.52;;;;;;;25.89;100.00;102374.16;5070182;28;20051;-50
2022/07/12 08:08:24;;;;;;;10.77;8.60;;;;;;;25.79;100.00;102376.81;5072710;28;20033;-47
2022/07/12 08:10:50;;;;;;;8.87;7.20;;;;;;;25.85;100.00;102370.31;5070078;28;20041;-46
2022/07/12 08:13:16;;;;;;;10.40;7.63;;;;;;;26.35;100.00;102367.38;5074318;28;20029;-50
2022/07/12 08:15:42;;;;;;;10.52;7.78;;;;;;;26.31;100.00;102377.22;5074865;28;20155;-50
2022/07/12 08:18:08;;;;;;;;;;;;;;;26.50;100.00;102374.84;5073215;28;20025;-51
2022/07/12 08:20:34;;;;;;;12.40;6.80;;;;;;;26.11;100.00;102383.34;5070918;28;20012;-49
2022/07/12 08:22:59;;;;;;;;;;;;;;;26.01;100.00;102381.38;5069126;28;20029;-51
2022/07/12 08:25:24;;;;;;;9.33;6.93;;;;;;;26.05;100.00;102385.22;5066292;28;19912;-51
2022/07/12 08:27:50;;;;;;;11.18;6.90;;;;;;;26.11;100.00;102381.44;5066793;28;20071;-54
2022/07/12 08:30:16;;;;;;;;;;;;;;;26.00;100.00;102374.22;5069323;28;20052;-51
2022/07/12 08:32:45;;;;;;;11.37;7.30;;;;;;;26.16;100.00;102384.25;5068385;28;19956;-49
2022/07/12 08:35:11;;;;;;;9.33;7.63;;;;;;;26.26;100.00;102388.97;5068132;28;20056;-50
2022/07/12 08:37:37;;;;;;;11.37;7.83;;;;;;;26.15;100.00;102384.47;5073603;28;20029;-50
2022/07/12 08:40:03;;;;;;;;;;;;;;;26.11;100.00;102389.66;5073388;28;20048;-49
2022/07/12 08:42:29;;;;;;;10.93;7.90;;;;;;;26.24;100.00;102395.81;5068946;28;19931;-50
2022/07/12 08:44:55;;;;;;;;;;;;;;;26.46;100.00;102401.97;5082334;28;20067;-47
2022/07/12 08:47:21;;;;;;;10.07;8.53;;;;;;;26.24;100.00;102395.81;5068728;28;19923;-54
2022/07/12 08:50:05;;;;;;;;;;;;;;;26.29;100.00;102401.31;5070330;28;20097;-51
2022/07/12 08:52:30;;;;;;;12.63;8.30;;;;;;;26.56;100.00;102389.41;5070428;28;19938;-47
2022/07/12 08:54:55;;;;;;;;;;;;;;;26.49;100.00;102395.13;5072355;28;20100;-49
2022/07/12 08:57:31;;;;;;;11.47;9.07;;;;;;;26.85;100.00;102386.25;5073053;28;19913;-50
2022/07/12 09:00:01;;;;;;;10.82;9.25;;;;;;;26.58;100.00;102387.22;5072681;28;20052;-48
2022/07/12 09:02:27;;;;;;;11.27;9.07;;;;;;;26.48;100.00;102386.06;5074215;28;20037;-51
2022/07/12 09:05:07;;;;;;;8.50;7.23;;;;;;;26.51;100.00;102387.47;5072915;28;20057;-51
2022/07/12 09:07:36;;;;;;;8.53;7.27;;;;;;;26.81;100.00;102374.97;5072897;28;20085;-51
2022/07/12 09:10:08;;;;;;;12.40;8.10;;;;;;;27.00;100.00;102383.59;5073510;28;20096;-50
2022/07/12 09:12:35;;;;;;;13.20;8.77;;;;;;;26.78;100.00;102383.72;5078760;28;20032;-49
2022/07/12 09:15:19;;;;;;;11.20;7.50;;;;;;;27.09;100.00;102380.28;5079173;28;20066;-51
2022/07/12 09:18:04;;;;;;;11.47;7.23;;;;;;;26.89;100.00;102376.38;5065119;28;20036;-54
2022/07/12 09:20:32;;;;;;;7.90;6.60;;;;;;;26.84;100.00;102379.91;5072024;28;20036;-48
2022/07/12 09:23:00;;;;;;;12.97;6.23;;;;;;;26.99;100.00;102375.59;5071381;28;20308;-48
2022/07/12 09:25:26;;;;;;;8.10;6.60;;;;;;;27.05;100.00;102389.06;5080006;28;20048;-48
2022/07/12 09:27:54;;;;;;;14.23;7.43;;;;;;;27.10;100.00;102379.19;5071784;28;20056;-52
2022/07/12 09:30:23;;;;;;;14.97;7.10;;;;;;;27.53;100.00;102387.25;5071636;28;20143;-50
2022/07/12 09:36:17;;;;;;;10.33;6.70;;;;;;;27.28;100.00;102388.84;5074094;28;20055;-52
2022/07/12 09:38:49;;;;;;;12.77;6.57;;;;;;;27.61;100.00;102393.03;5073578;28;20043;-52
2022/07/12 09:41:20;;;;;;;11.57;5.07;;;;;;;27.65;100.00;102381.47;5080538;28;20057;-52
2022/07/12 09:43:46;;;;;;;7.77;4.67;;;;;;;28.24;100.00;102377.31;5072038;28;20056;-49
2022/07/12 09:46:14;;;;;;;7.50;5.37;;;;;;;28.55;100.00;102387.41;5075475;28;20036;-51
2022/07/12 09:48:40;;;;;;;9.38;5.43;;;;;;;28.91;100.00;102376.28;5072488;28;20029;-51
2022/07/12 09:51:08;;;;;;;6.65;4.60;;;;;;;29.07;100.00;102368.75;5067126;28;20135;-49
2022/07/12 09:53:59;;;;;;;4.65;3.13;;;;;;;29.83;100.00;102368.44;5080187;28;20036;-51
2022/07/12 09:56:26;;;;;;;5.78;3.75;;;;;;;30.21;100.00;102361.47;5070892;28;20032;-47
2022/07/12 09:58:59;;;;;;;8.18;5.15;;;;;;;30.53;100.00;102377.34;5075511;28;20071;-50
2022/07/12 10:01:25;;;;;;;4.72;3.65;;;;;;;30.84;100.00;102362.34;5071855;28;20061;-52
2022/07/12 10:03:52;;;;;;;6.88;3.58;;;;;;;31.26;98.55;102370.91;5076361;28;20096;-51
2022/07/12 10:06:30;;;;;;;5.30;3.83;;;;;;;32.29;94.10;102373.78;5083764;28;20032;-50
2022/07/12 10:08:56;;;;;;;8.13;4.70;;;;;;;32.85;93.37;102382.06;5078770;28;20048;-53
2022/07/12 10:11:24;;;;;;;9.13;4.68;;;;;;;32.65;95.38;102377.81;5073408;28;20041;-53
2022/07/12 10:13:50;;;;;;;6.60;4.57;;;;;;;33.04;91.19;102377.22;5073418;28;20060;-52
2022/07/12 10:16:27;;;;;;;7.15;3.97;;;;;;;33.38;87.48;102383.34;5075976;28;20028;-50
2022/07/12 10:19:21;;;;;;;5.72;2.67;;;;;;;32.87;82.60;102393.66;5071411;28;20092;-49
2022/07/12 10:21:48;;;;;;;7.10;5.15;;;;;;;32.70;87.44;102389.56;5069422;28;20028;-48
2022/07/12 10:24:32;;;;;;;4.75;3.15;;;;;;;33.53;78.82;102396.03;5071018;28;20037;-50
2022/07/12 10:27:28;;;;;;;4.63;2.85;;;;;;;34.62;71.96;102411.72;5071363;28;20081;-53
2022/07/12 10:30:13;;;;;;;5.78;3.70;;;;;;;34.19;72.99;102402.91;5068935;28;20052;-49
2022/07/12 10:32:42;;;;;;;4.93;3.53;;;;;;;33.94;71.72;102402.44;5073227;28;20051;-50
2022/07/12 10:35:21;;;;;;;6.93;3.30;;;;;;;34.69;68.42;102400.94;5077339;28;20092;-50
2022/07/12 10:38:12;;;;;;;4.53;2.92;;;;;;;34.40;69.51;102413.44;5068955;28;20142;-51
2022/07/12 10:40:40;;;;;;;6.97;4.38;;;;;;;35.05;67.07;102421.28;5068223;28;20032;-50
2022/07/12 10:43:06;;;;;;;5.07;4.18;;;;;;;34.53;71.60;102412.53;5075139;28;20044;-50
2022/07/12 10:45:34;;;;;;;6.68;4.60;;;;;;;34.71;70.28;102404.22;5072996;28;20035;-52
2022/07/12 10:48:08;;;;;;;6.72;4.53;;;;;;;34.57;72.80;102423.78;5077571;28;20111;-51
2022/07/12 10:50:43;;;;;;;9.02;5.53;;;;;;;34.52;73.87;102398.94;5069118;28;20036;-47
2022/07/12 10:53:27;;;;;;;8.05;6.15;;;;;;;34.82;71.49;102399.16;5075150;28;20040;-51
2022/07/12 10:56:04;;;;;;;8.23;6.53;;;;;;;35.19;68.61;102402.47;5078269;28;20042;-52
2022/07/12 10:58:34;;;;;;;8.07;5.85;;;;;;;35.43;69.00;102392.78;5068637;28;20036;-50
2022/07/12 11:01:08;;;;;;;7.93;5.57;;;;;;;35.22;70.66;102399.03;5074467;28;20052;-49
2022/07/12 11:03:38;;;;;;;9.43;5.47;;;;;;;34.35;76.03;102405.25;5074116;28;20028;-49
2022/07/12 11:06:04;;;;;;;5.80;4.20;;;;;;;34.84;72.31;102399.69;5071483;28;20037;-52
2022/07/12 11:08:31;;;;;;;7.43;4.60;;;;;;;34.00;75.07;102392.88;5073709;28;20055;-50
2022/07/12 11:10:57;;;;;;;7.85;4.47;;;;;;;33.53;77.55;102384.09;5068482;28;20036;-50
2022/07/12 11:13:25;;;;;;;7.80;4.80;;;;;;;33.79;79.66;102378.72;5067963;28;20149;-51
2022/07/12 11:16:00;;;;;;;12.75;5.55;;;;;;;33.67;80.20;102386.78;5070074;28;20025;-48
2022/07/12 11:18:34;;;;;;;6.95;5.60;;;;;;;34.22;78.23;102380.06;5073115;28;20049;-51
2022/07/12 11:21:01;;;;;;;8.40;5.68;;;;;;;35.02;71.44;102384.66;5072318;28;20048;-49
2022/07/12 11:23:28;;;;;;;6.65;4.40;;;;;;;34.88;72.97;102386.75;5077156;28;20044;-50
2022/07/12 11:25:58;;;;;;;6.82;3.53;;;;;;;35.37;72.89;102383.81;5073099;28;20154;-53